Time;durP1;ratioP1;P1;durP2;ratioP2;P2;SDS_P1;SDS_P2;PMS_P1;PMS_P2;Temp;Humidity;BMP_temperature;BMP_pressure;BME280_temperature;BME280_humidity;BME280_pressure;Samples;Min_cycle;Max_cycle;Signal;HPM_P1;HPM_P2
2023/08/05 00:00:14;;;;;;;4.03;2.70;;;15.60;99.90;;;;;;5052206;28;20132;-72
2023/08/05 00:02:40;;;;;;;4.15;3.35;;;15.60;99.90;;;;;;5052025;28;20053;-72
2023/08/05 00:05:07;;;;;;;4.28;2.92;;;15.60;99.90;;;;;;5052384;28;20124;-71
2023/08/05 00:07:33;;;;;;;4.75;3.63;;;15.60;99.90;;;;;;5018053;28;20470;-73
2023/08/05 00:09:58;;;;;;;7.30;3.55;;;15.50;99.90;;;;;;5052391;28;20051;-75
2023/08/05 00:12:24;;;;;;;4.05;3.55;;;15.50;99.90;;;;;;5052001;28;20056;-72
2023/08/05 00:14:50;;;;;;;5.43;3.10;;;15.50;99.90;;;;;;5034405;28;20134;-71
2023/08/05 00:17:15;;;;;;;5.82;3.85;;;15.50;99.90;;;;;;5052109;28;20053;-72
2023/08/05 00:19:42;;;;;;;3.50;3.17;;;15.50;99.90;;;;;;5052013;28;20522;-73
2023/08/05 00:22:08;;;;;;;4.75;3.25;;;15.50;99.90;;;;;;5056360;28;20083;-72
2023/08/05 00:24:34;;;;;;;4.63;3.25;;;15.50;99.90;;;;;;5055949;28;20044;-72
2023/08/05 00:26:59;;;;;;;6.32;3.63;;;15.40;99.90;;;;;;5038230;28;20099;-72
2023/08/05 00:29:25;;;;;;;3.38;2.78;;;15.50;99.90;;;;;;5055870;28;20056;-73
2023/08/05 00:31:51;;;;;;;3.85;3.20;;;15.50;99.90;;;;;;5037647;28;20067;-70
2023/08/05 00:34:16;;;;;;;5.35;3.10;;;15.50;99.90;;;;;;5038378;28;20056;-71
2023/08/05 00:36:42;;;;;;;5.40;3.22;;;15.50;99.90;;;;;;5055737;28;20084;-71
2023/08/05 00:39:08;;;;;;;3.85;2.25;;;15.50;99.90;;;;;;5038258;28;20059;-71
2023/08/05 00:41:33;;;;;;;4.50;3.40;;;15.50;99.90;;;;;;5055595;28;20044;-71
2023/08/05 00:43:59;;;;;;;3.35;2.67;;;15.50;99.90;;;;;;5038644;28;20124;-71
2023/08/05 00:46:25;;;;;;;4.28;3.13;;;15.50;99.90;;;;;;5055906;28;20048;-71
2023/08/05 00:48:52;;;;;;;6.93;3.53;;;15.50;99.90;;;;;;5038152;28;20056;-71
2023/08/05 00:51:20;;;;;;;4.45;3.35;;;15.50;99.90;;;;;;5055502;28;20049;-70
2023/08/05 00:53:47;;;;;;;3.28;2.97;;;15.50;99.90;;;;;;5055487;28;20095;-71
2023/08/05 00:56:14;;;;;;;3.22;2.75;;;15.50;99.90;;;;;;5055784;28;20106;-71
2023/08/05 00:58:42;;;;;;;3.72;3.38;;;15.50;99.90;;;;;;5038042;28;20061;-72
2023/08/05 01:01:08;;;;;;;8.23;4.10;;;15.50;99.90;;;;;;5055303;28;20036;-70
2023/08/05 01:03:33;;;;;;;5.68;3.15;;;15.50;99.90;;;;;;5055756;28;20124;-71
2023/08/05 01:06:00;;;;;;;4.35;3.92;;;15.50;99.90;;;;;;5055366;28;20053;-71
2023/08/05 01:08:27;;;;;;;6.30;3.60;;;15.40;99.90;;;;;;5055236;28;20134;-72
2023/08/05 01:10:53;;;;;;;3.97;3.60;;;15.40;99.90;;;;;;5055142;28;20057;-72
2023/08/05 01:13:20;;;;;;;4.53;3.33;;;15.40;99.90;;;;;;5055124;28;20151;-71
2023/08/05 01:15:46;;;;;;;4.90;3.60;;;15.30;99.90;;;;;;5055181;28;20045;-72
2023/08/05 01:18:13;;;;;;;4.10;2.90;;;15.30;99.90;;;;;;5055809;28;20488;-70
2023/08/05 01:20:53;;;;;;;4.70;3.88;;;15.30;99.90;;;;;;5055031;28;20059;-71
2023/08/05 01:23:27;;;;;;;6.68;3.40;;;15.30;99.90;;;;;;5055091;28;20052;-72
2023/08/05 01:25:53;;;;;;;5.45;3.60;;;15.20;99.90;;;;;;5055117;28;20142;-71
2023/08/05 01:28:20;;;;;;;5.78;4.00;;;15.10;99.90;;;;;;5037656;28;20040;-71
2023/08/05 01:30:47;;;;;;;4.20;3.03;;;15.00;99.90;;;;;;5055062;28;20114;-72
2023/08/05 01:33:14;;;;;;;6.38;4.03;;;15.00;99.90;;;;;;5036141;28;20439;-71
2023/08/05 01:35:46;;;;;;;4.43;2.92;;;14.90;99.90;;;;;;5055285;28;20064;-71
2023/08/05 01:38:11;;;;;;;7.63;3.63;;;14.90;99.90;;;;;;5037275;28;20040;-71
2023/08/05 01:40:37;;;;;;;4.03;3.65;;;14.80;99.90;;;;;;5054885;28;20052;-72
2023/08/05 01:43:03;;;;;;;9.98;4.60;;;14.80;99.90;;;;;;5037290;28;20124;-71
2023/08/05 01:45:28;;;;;;;4.18;2.88;;;14.80;99.90;;;;;;5054509;28;20056;-72
2023/08/05 01:47:54;;;;;;;3.40;3.10;;;14.80;99.90;;;;;;5036371;28;20095;-71
2023/08/05 01:50:20;;;;;;;4.07;3.13;;;14.70;99.90;;;;;;5054607;28;20076;-71
2023/08/05 01:52:46;;;;;;;4.78;3.10;;;14.70;99.90;;;;;;5036352;28;20056;-71
2023/08/05 01:55:12;;;;;;;3.45;2.92;;;14.80;99.90;;;;;;5036846;28;20044;-74
2023/08/05 01:57:37;;;;;;;5.47;2.78;;;14.70;99.90;;;;;;5054603;28;20501;-72
2023/08/05 02:00:05;;;;;;;3.80;2.78;;;14.70;99.90;;;;;;5054170;28;20040;-73
2023/08/05 02:02:31;;;;;;;5.38;3.33;;;14.70;99.90;;;;;;5054544;28;20195;-74
2023/08/05 02:04:56;;;;;;;6.20;3.78;;;14.70;99.90;;;;;;5054142;28;20498;-72
2023/08/05 02:07:22;;;;;;;4.07;3.55;;;15.40;99.90;;;;;;5054342;28;20048;-72
2023/08/05 02:09:48;;;;;;;4.05;3.38;;;14.70;99.90;;;;;;5053651;28;20045;-72
2023/08/05 02:12:14;;;;;;;3.47;3.05;;;14.70;99.90;;;;;;5053913;28;20044;-73
2023/08/05 02:14:39;;;;;;;6.95;3.47;;;14.70;99.90;;;;;;5054508;28;20052;-72
2023/08/05 02:17:05;;;;;;;5.32;3.65;;;14.60;99.90;;;;;;5053716;28;20363;-72
2023/08/05 02:19:31;;;;;;;2.95;2.58;;;14.60;99.90;;;;;;5054192;28;20130;-73
2023/08/05 02:21:56;;;;;;;6.03;3.72;;;14.50;99.90;;;;;;5053859;28;20045;-72
2023/08/05 02:24:22;;;;;;;3.83;3.30;;;14.40;99.90;;;;;;5053702;28;20048;-72
2023/08/05 02:26:48;;;;;;;11.15;3.53;;;14.40;99.90;;;;;;5053909;28;20089;-73
2023/08/05 02:29:13;;;;;;;4.72;3.65;;;14.40;99.90;;;;;;5053622;28;20505;-75
2023/08/05 02:31:39;;;;;;;5.47;3.13;;;14.30;99.90;;;;;;5053579;28;20056;-72
2023/08/05 02:34:05;;;;;;;3.42;3.13;;;14.30;99.90;;;;;;5053572;28;20049;-72
2023/08/05 02:36:30;;;;;;;3.47;2.90;;;14.20;99.90;;;;;;5053607;28;20045;-74
2023/08/05 02:38:56;;;;;;;4.95;3.22;;;14.10;99.90;;;;;;5053948;28;20427;-72
2023/08/05 02:41:22;;;;;;;7.72;3.65;;;14.10;99.90;;;;;;5053307;28;20044;-72
2023/08/05 02:43:47;;;;;;;3.20;2.90;;;14.10;99.90;;;;;;5052914;28;20048;-74
2023/08/05 02:46:13;;;;;;;4.57;2.95;;;14.10;99.90;;;;;;5053252;28;20047;-72
2023/08/05 02:48:39;;;;;;;3.83;3.17;;;14.00;99.90;;;;;;5035906;28;20055;-72
2023/08/05 02:51:04;;;;;;;3.50;3.00;;;13.90;99.90;;;;;;5053489;28;20124;-73
2023/08/05 02:53:30;;;;;;;4.45;2.72;;;13.80;99.90;;;;;;5052802;28;20049;-73
2023/08/05 02:55:56;;;;;;;3.17;2.83;;;13.80;99.90;;;;;;5035297;28;20068;-73
2023/08/05 02:58:22;;;;;;;6.15;3.22;;;13.70;99.90;;;;;;5053102;28;20476;-72
2023/08/05 03:00:47;;;;;;;4.47;3.40;;;13.70;99.90;;;;;;5053103;28;20049;-72
2023/08/05 03:03:14;;;;;;;5.88;3.28;;;13.70;99.90;;;;;;5052653;28;20052;-72
2023/08/05 03:05:40;;;;;;;3.95;3.30;;;13.60;99.90;;;;;;5052969;28;20049;-72
2023/08/05 03:08:06;;;;;;;3.63;3.33;;;13.60;99.90;;;;;;5052794;28;20067;-74
2023/08/05 03:10:32;;;;;;;5.45;2.88;;;13.50;99.90;;;;;;5035214;28;20179;-72
2023/08/05 03:12:57;;;;;;;4.65;2.75;;;13.50;99.90;;;;;;5052781;28;20095;-73
2023/08/05 03:15:28;;;;;;;4.63;3.20;;;13.50;99.90;;;;;;5053147;28;20051;-72
2023/08/05 03:17:54;;;;;;;3.75;2.90;;;13.40;99.90;;;;;;5035517;28;20371;-73
2023/08/05 03:20:24;;;;;;;6.50;3.42;;;13.40;99.90;;;;;;5035275;28;20099;-72
2023/08/05 03:22:55;;;;;;;5.32;3.20;;;13.40;99.90;;;;;;5052750;28;20106;-69
2023/08/05 03:25:22;;;;;;;4.70;3.65;;;13.40;99.90;;;;;;5052666;28;20049;-70
2023/08/05 03:27:49;;;;;;;3.00;2.63;;;13.40;99.90;;;;;;5052624;28;20037;-70
2023/08/05 03:30:15;;;;;;;4.45;3.35;;;13.30;99.90;;;;;;5035421;28;20056;-71
2023/08/05 03:32:41;;;;;;;4.03;3.60;;;13.30;99.90;;;;;;5035719;28;20068;-71
2023/08/05 03:35:07;;;;;;;4.82;4.10;;;13.30;99.90;;;;;;5052573;28;20049;-72
2023/08/05 03:37:33;;;;;;;6.13;3.80;;;13.20;99.90;;;;;;5052631;28;20056;-72
2023/08/05 03:39:58;;;;;;;8.13;3.92;;;13.20;99.90;;;;;;5034655;28;20071;-73
2023/08/05 03:42:24;;;;;;;5.47;3.63;;;13.20;99.90;;;;;;5052731;28;20045;-71
2023/08/05 03:44:50;;;;;;;4.30;3.35;;;13.10;99.90;;;;;;5052722;28;20450;-71
2023/08/05 03:47:16;;;;;;;5.70;3.63;;;13.20;99.90;;;;;;5052330;28;20045;-72
2023/08/05 03:49:42;;;;;;;3.38;3.08;;;13.20;99.90;;;;;;5034751;28;20107;-70
2023/08/05 03:52:08;;;;;;;6.40;3.70;;;13.20;99.90;;;;;;5052234;28;20048;-72
2023/08/05 03:54:34;;;;;;;3.95;3.00;;;13.30;99.90;;;;;;5053490;28;20111;-70
2023/08/05 03:57:02;;;;;;;4.32;3.92;;;13.40;99.90;;;;;;5059401;28;20454;-72
2023/08/05 03:59:28;;;;;;;4.85;3.53;;;13.40;99.90;;;;;;5041988;28;20053;-74
2023/08/05 04:01:54;;;;;;;5.05;3.47;;;13.40;99.90;;;;;;5058970;28;20156;-72
2023/08/05 04:04:19;;;;;;;6.20;3.30;;;13.50;99.90;;;;;;5058905;28;20052;-73
2023/08/05 04:06:45;;;;;;;5.20;3.90;;;13.50;99.90;;;;;;5059416;28;20045;-71
2023/08/05 04:09:12;;;;;;;5.20;3.55;;;13.50;99.90;;;;;;5059411;28;20049;-72
2023/08/05 04:11:38;;;;;;;4.30;3.28;;;13.60;99.90;;;;;;5059138;28;20045;-71
2023/08/05 04:14:04;;;;;;;4.55;3.72;;;14.30;99.90;;;;;;5059346;28;20056;-71
2023/08/05 04:16:30;;;;;;;5.30;3.72;;;13.70;99.90;;;;;;5058815;28;20053;-71
2023/08/05 04:18:57;;;;;;;4.95;3.83;;;13.70;99.90;;;;;;5058850;28;20120;-71
2023/08/05 04:21:28;;;;;;;4.55;3.30;;;13.80;99.90;;;;;;5058876;28;20048;-70
2023/08/05 04:23:56;;;;;;;3.92;3.42;;;13.90;99.90;;;;;;5058782;28;20102;-71
2023/08/05 04:26:22;;;;;;;4.45;3.53;;;13.90;99.90;;;;;;5041300;28;20089;-71
2023/08/05 04:28:48;;;;;;;6.85;3.92;;;13.90;99.90;;;;;;5059340;28;20048;-71
2023/08/05 04:31:14;;;;;;;6.40;4.80;;;13.90;99.90;;;;;;5058580;28;20135;-71
2023/08/05 04:33:40;;;;;;;8.10;3.63;;;14.00;99.90;;;;;;5058708;28;20060;-71
2023/08/05 04:36:05;;;;;;;5.22;3.85;;;14.00;99.90;;;;;;5059079;28;20128;-71
2023/08/05 04:38:31;;;;;;;5.20;3.83;;;14.10;99.90;;;;;;5058780;28;20056;-72
2023/08/05 04:40:57;;;;;;;7.72;4.18;;;14.10;99.90;;;;;;5058628;28;20049;-70
2023/08/05 04:43:24;;;;;;;10.15;4.07;;;14.10;99.90;;;;;;5040852;28;20132;-71
2023/08/05 04:45:54;;;;;;;5.10;4.20;;;13.90;99.90;;;;;;5041068;28;20045;-72
2023/08/05 04:48:20;;;;;;;8.63;4.57;;;13.70;99.90;;;;;;5059136;28;20045;-71
2023/08/05 04:50:45;;;;;;;6.35;4.20;;;13.70;99.90;;;;;;5058394;28;20384;-71
2023/08/05 04:53:15;;;;;;;4.97;3.47;;;13.70;99.90;;;;;;5058576;28;20094;-73
2023/08/05 04:55:40;;;;;;;4.53;3.33;;;13.80;99.90;;;;;;5058540;28;20111;-72
2023/08/05 04:58:06;;;;;;;6.57;3.80;;;13.90;99.90;;;;;;5041162;28;20053;-72
2023/08/05 05:00:32;;;;;;;6.70;3.58;;;14.00;99.90;;;;;;5024840;28;20135;-71
2023/08/05 05:02:57;;;;;;;4.95;3.10;;;14.10;99.90;;;;;;5058422;28;20366;-71
2023/08/05 05:05:23;;;;;;;4.57;3.42;;;14.20;99.90;;;;;;5040546;28;20127;-71
2023/08/05 05:07:49;;;;;;;4.65;3.80;;;14.30;99.90;;;;;;5056152;28;20044;-70
2023/08/05 05:10:15;;;;;;;3.97;3.17;;;14.40;99.90;;;;;;5038229;28;20519;-71
2023/08/05 05:12:40;;;;;;;6.50;4.45;;;14.50;99.90;;;;;;5054764;28;20053;-73
2023/08/05 05:15:06;;;;;;;7.43;4.55;;;14.50;99.90;;;;;;5055159;28;20060;-73
2023/08/05 05:17:35;;;;;;;8.02;4.40;;;14.60;99.90;;;;;;5055151;28;20374;-72
2023/08/05 05:20:05;;;;;;;7.32;4.45;;;14.70;99.90;;;;;;5055483;28;20106;-73
2023/08/05 05:22:32;;;;;;;4.72;4.18;;;14.70;99.90;;;;;;5055064;28;20052;-71
2023/08/05 05:24:58;;;;;;;4.47;3.53;;;14.70;99.90;;;;;;5037022;28;20138;-71
2023/08/05 05:27:24;;;;;;;5.93;3.72;;;14.70;99.90;;;;;;5055269;28;20045;-75
2023/08/05 05:29:49;;;;;;;3.58;3.28;;;14.80;99.90;;;;;;5054744;28;20470;-73
2023/08/05 05:32:15;;;;;;;4.80;3.13;;;14.90;99.90;;;;;;5054734;28;20059;-73
2023/08/05 05:34:41;;;;;;;4.45;2.80;;;15.00;99.90;;;;;;5054575;28;20087;-73
2023/08/05 05:37:07;;;;;;;5.78;3.08;;;15.10;99.90;;;;;;5054766;28;20041;-73
2023/08/05 05:39:33;;;;;;;5.22;2.75;;;15.20;99.90;;;;;;5054573;28;20044;-72
2023/08/05 05:41:59;;;;;;;5.75;3.65;;;15.30;99.90;;;;;;5036545;28;20052;-74
2023/08/05 05:44:27;;;;;;;5.22;3.67;;;15.30;99.90;;;;;;5054797;28;20044;-73
2023/08/05 05:46:53;;;;;;;7.38;3.25;;;15.40;99.90;;;;;;5054256;28;20049;-72
2023/08/05 05:49:19;;;;;;;7.40;3.30;;;15.40;99.90;;;;;;5036907;28;20373;-72
2023/08/05 05:51:46;;;;;;;6.18;3.22;;;15.50;99.90;;;;;;5054272;28;20053;-72
2023/08/05 05:54:12;;;;;;;7.35;2.80;;;15.60;99.90;;;;;;5054619;28;20057;-72
2023/08/05 05:56:38;;;;;;;4.00;3.47;;;15.70;99.90;;;;;;5054556;28;20147;-74
2023/08/05 05:59:04;;;;;;;5.20;3.22;;;15.70;99.90;;;;;;5054154;28;20553;-73
2023/08/05 06:01:29;;;;;;;3.72;2.92;;;15.70;99.90;;;;;;5053997;28;20041;-72
2023/08/05 06:03:55;;;;;;;2.85;2.55;;;15.80;99.90;;;;;;5054121;28;20137;-71
2023/08/05 06:06:21;;;;;;;4.18;3.22;;;15.70;99.90;;;;;;5036312;28;20041;-73
2023/08/05 06:08:47;;;;;;;6.20;2.88;;;15.80;99.90;;;;;;5054180;28;20051;-73
2023/08/05 06:11:12;;;;;;;4.05;2.83;;;15.80;99.90;;;;;;5019443;28;20049;-74
2023/08/05 06:13:38;;;;;;;4.90;2.90;;;15.90;99.90;;;;;;5053973;28;20041;-72
2023/08/05 06:16:05;;;;;;;3.65;2.58;;;16.00;99.90;;;;;;5053895;28;20414;-73
2023/08/05 06:18:30;;;;;;;4.63;2.60;;;16.10;99.90;;;;;;5053417;28;20045;-72
2023/08/05 06:20:56;;;;;;;5.00;2.88;;;16.20;99.90;;;;;;5053763;28;20375;-72
2023/08/05 06:23:22;;;;;;;5.20;3.03;;;16.30;99.90;;;;;;5053902;28;20496;-72
2023/08/05 06:25:48;;;;;;;3.10;2.28;;;16.40;99.90;;;;;;5054204;28;20125;-71
2023/08/05 06:28:13;;;;;;;4.85;2.80;;;16.60;99.90;;;;;;5019076;28;20505;-72
2023/08/05 06:30:43;;;;;;;4.25;2.35;;;16.70;99.90;;;;;;5053531;28;20049;-73
2023/08/05 06:33:09;;;;;;;4.70;2.22;;;16.80;99.90;;;;;;5053593;28;20072;-73
2023/08/05 06:35:35;;;;;;;4.57;2.80;;;17.00;99.90;;;;;;5053569;28;20435;-72
2023/08/05 06:38:01;;;;;;;5.30;3.45;;;17.20;99.90;;;;;;5053579;28;20132;-72
2023/08/05 06:40:27;;;;;;;3.22;2.58;;;17.30;99.90;;;;;;5035975;28;20041;-72
2023/08/05 06:42:52;;;;;;;5.07;2.60;;;17.40;99.90;;;;;;5035919;28;20052;-74
2023/08/05 06:45:18;;;;;;;4.68;2.55;;;17.50;99.90;;;;;;5053471;28;20052;-72
2023/08/05 06:47:44;;;;;;;4.53;2.60;;;17.60;99.90;;;;;;5053385;28;20080;-73
2023/08/05 06:50:10;;;;;;;2.33;2.13;;;17.80;99.90;;;;;;5053310;28;20131;-73
2023/08/05 06:52:36;;;;;;;3.28;2.38;;;18.40;99.90;;;;;;5053872;28;20071;-73
2023/08/05 06:55:03;;;;;;;5.07;2.08;;;19.10;99.90;;;;;;5035240;28;20462;-73
2023/08/05 06:57:30;;;;;;;6.25;2.08;;;20.20;99.90;;;;;;5053237;28;20045;-72
2023/08/05 06:59:57;;;;;;;2.97;2.67;;;21.30;99.90;;;;;;5053608;28;20045;-72
2023/08/05 07:02:22;;;;;;;3.75;2.53;;;21.60;99.90;;;;;;5035350;28;20049;-72
2023/08/05 07:04:48;;;;;;;3.42;2.03;;;21.40;99.90;;;;;;5053404;28;20179;-73
2023/08/05 07:07:14;;;;;;;2.67;2.30;;;21.10;99.90;;;;;;5035185;28;20457;-73
2023/08/05 07:09:39;;;;;;;3.75;2.13;;;20.80;99.90;;;;;;5053221;28;20123;-72
2023/08/05 07:12:05;;;;;;;4.57;2.60;;;20.40;99.90;;;;;;5052825;28;20049;-72
2023/08/05 07:14:33;;;;;;;3.42;2.30;;;20.20;99.90;;;;;;5052867;28;20136;-73
2023/08/05 07:16:59;;;;;;;3.00;2.17;;;20.00;99.90;;;;;;5053076;28;20076;-73
2023/08/05 07:19:24;;;;;;;2.55;2.35;;;19.90;99.90;;;;;;5053077;28;20466;-72
2023/08/05 07:21:50;;;;;;;4.22;2.30;;;19.70;99.90;;;;;;5052715;28;20037;-72
2023/08/05 07:24:18;;;;;;;5.00;2.58;;;19.50;99.90;;;;;;5035005;28;20071;-72
2023/08/05 07:26:44;;;;;;;2.70;2.20;;;19.40;99.90;;;;;;5052651;28;20119;-73
2023/08/05 07:29:09;;;;;;;5.47;2.13;;;19.30;99.90;;;;;;5052498;28;20041;-73
2023/08/05 07:31:36;;;;;;;4.55;2.20;;;19.20;99.90;;;;;;5051789;28;20136;-72
2023/08/05 07:34:04;;;;;;;2.30;2.10;;;19.10;99.90;;;;;;5035315;28;20045;-74
2023/08/05 07:36:30;;;;;;;4.13;2.30;;;18.90;99.90;;;;;;5052554;28;20048;-73
2023/08/05 07:38:58;;;;;;;3.05;2.30;;;18.90;99.90;;;;;;5052571;28;20056;-72
2023/08/05 07:41:26;;;;;;;4.28;2.72;;;18.80;99.90;;;;;;5052450;28;20052;-73
2023/08/05 07:43:57;;;;;;;2.85;2.20;;;18.80;99.90;;;;;;5052912;28;20083;-74
2023/08/05 07:46:25;;;;;;;3.53;2.10;;;18.90;99.90;;;;;;5035623;28;20040;-72
2023/08/05 07:48:56;;;;;;;4.18;2.17;;;19.00;99.90;;;;;;5052430;28;20044;-73
2023/08/05 07:51:23;;;;;;;2.00;1.80;;;19.40;99.90;;;;;;5052918;28;20052;-72
2023/08/05 07:53:50;;;;;;;2.53;2.25;;;19.90;99.90;;;;;;5052279;28;20045;-73
2023/08/05 07:56:16;;;;;;;4.53;2.33;;;20.10;99.90;;;;;;5052423;28;20446;-72
2023/08/05 07:58:47;;;;;;;3.40;2.08;;;20.20;99.90;;;;;;5052297;28;20094;-72
2023/08/05 08:01:19;;;;;;;3.63;2.13;;;20.20;99.90;;;;;;5052892;28;20110;-72
2023/08/05 08:03:45;;;;;;;5.22;2.17;;;20.00;99.90;;;;;;5052391;28;20056;-72
2023/08/05 08:06:15;;;;;;;3.33;2.10;;;20.00;99.90;;;;;;5052225;28;20190;-73
2023/08/05 08:08:42;;;;;;;3.13;1.90;;;20.40;99.90;;;;;;5018459;28;20137;-73
2023/08/05 08:11:09;;;;;;;2.90;2.40;;;21.20;99.90;;;;;;5052202;28;20060;-71
2023/08/05 08:13:36;;;;;;;3.25;2.17;;;21.80;99.90;;;;;;5052643;28;20053;-72
2023/08/05 08:16:01;;;;;;;4.35;2.25;;;22.20;99.90;;;;;;5052226;28;20053;-74
2023/08/05 08:18:27;;;;;;;4.88;2.17;;;22.20;99.90;;;;;;5034960;28;20041;-73
2023/08/05 08:20:53;;;;;;;2.50;2.30;;;21.90;99.90;;;;;;5052211;28;20596;-72
2023/08/05 08:23:19;;;;;;;2.80;2.03;;;21.70;99.90;;;;;;5052145;28;20045;-73
2023/08/05 08:25:45;;;;;;;4.97;2.50;;;21.60;99.90;;;;;;5035237;28;20046;-72
2023/08/05 08:28:11;;;;;;;4.38;2.55;;;21.50;99.90;;;;;;5051956;28;20046;-73
2023/08/05 08:30:36;;;;;;;3.08;2.58;;;21.30;99.90;;;;;;5052109;28;20057;-74
2023/08/05 08:33:03;;;;;;;3.72;2.40;;;21.40;99.90;;;;;;5052582;28;20454;-73
2023/08/05 08:35:29;;;;;;;2.50;2.15;;;21.20;99.90;;;;;;5034354;28;20388;-73
2023/08/05 08:37:55;;;;;;;2.72;2.17;;;21.00;99.90;;;;;;5051947;28;20049;-75
2023/08/05 08:40:21;;;;;;;3.65;2.38;;;20.70;99.90;;;;;;5051927;28;20055;-73
2023/08/05 08:42:49;;;;;;;2.70;2.50;;;20.50;99.90;;;;;;5055172;28;20056;-74
2023/08/05 08:45:16;;;;;;;5.78;2.58;;;20.30;99.90;;;;;;5056075;28;20126;-72
2023/08/05 08:47:42;;;;;;;4.20;2.35;;;20.40;99.90;;;;;;5055615;28;20044;-73
2023/08/05 08:50:09;;;;;;;3.20;2.25;;;20.60;99.90;;;;;;5055582;28;20045;-73
2023/08/05 08:52:38;;;;;;;2.20;2.00;;;20.80;99.90;;;;;;5055742;28;20053;-74
2023/08/05 08:55:04;;;;;;;5.22;2.55;;;21.00;99.90;;;;;;5055476;28;20059;-72
2023/08/05 08:57:29;;;;;;;3.38;2.08;;;21.10;99.90;;;;;;5055418;28;20470;-73
2023/08/05 08:59:56;;;;;;;3.40;1.80;;;21.40;99.90;;;;;;5037726;28;20049;-72
2023/08/05 09:02:24;;;;;;;3.63;2.10;;;22.00;99.90;;;;;;5037720;28;20529;-74
2023/08/05 09:04:52;;;;;;;3.13;1.83;;;23.20;99.50;;;;;;5055292;28;20124;-73
2023/08/05 09:07:25;;;;;;;4.95;2.05;;;24.30;98.20;;;;;;5021359;28;20101;-73
2023/08/05 09:09:51;;;;;;;4.05;2.25;;;24.40;96.90;;;;;;5055724;28;20454;-73
2023/08/05 09:12:16;;;;;;;2.58;1.90;;;24.30;97.00;;;;;;5055330;28;20056;-74
2023/08/05 09:14:42;;;;;;;4.18;1.75;;;24.20;97.20;;;;;;5055192;28;20523;-74
2023/08/05 09:17:08;;;;;;;3.95;1.75;;;23.80;97.00;;;;;;5037441;28;20086;-73
2023/08/05 09:19:34;;;;;;;2.42;1.42;;;23.30;97.10;;;;;;5037948;28;20484;-74
2023/08/05 09:22:05;;;;;;;3.83;2.05;;;23.20;96.90;;;;;;5037658;28;20505;-73
2023/08/05 09:24:31;;;;;;;2.63;1.58;;;23.40;96.90;;;;;;5037511;28;20142;-72
2023/08/05 09:27:00;;;;;;;2.20;2.00;;;24.00;96.80;;;;;;5054852;28;20077;-74
2023/08/05 09:29:27;;;;;;;1.70;1.60;;;25.00;95.70;;;;;;5037184;28;20080;-72
2023/08/05 09:32:01;;;;;;;2.80;2.17;;;25.50;95.40;;;;;;5054900;28;20056;-73
2023/08/05 09:34:35;;;;;;;2.55;1.50;;;25.80;96.30;;;;;;5055182;28;20135;-73
2023/08/05 09:37:02;;;;;;;1.83;1.40;;;26.00;95.10;;;;;;5037526;28;20041;-73
2023/08/05 09:39:44;;;;;;;3.38;2.53;;;26.00;95.70;;;;;;5037230;28;20089;-73
2023/08/05 09:42:24;;;;;;;4.03;1.80;;;26.30;93.90;;;;;;5054765;28;20060;-73
2023/08/05 09:44:55;;;;;;;1.67;1.40;;;26.90;94.90;;;;;;5055208;28;20044;-73
2023/08/05 09:47:25;;;;;;;2.38;1.38;;;27.00;95.60;;;;;;5054563;28;20048;-74
2023/08/05 09:49:52;;;;;;;1.85;1.60;;;27.30;94.80;;;;;;5054583;28;20057;-73
2023/08/05 09:52:21;;;;;;;2.22;1.20;;;27.00;93.90;;;;;;5020375;28;20044;-72
2023/08/05 09:54:59;;;;;;;1.75;1.65;;;26.80;93.50;;;;;;5054301;28;20056;-74
2023/08/05 09:57:29;;;;;;;1.55;1.35;;;26.50;91.00;;;;;;5055089;28;20041;-72
2023/08/05 09:59:58;;;;;;;1.50;1.40;;;25.90;92.40;;;;;;5054444;28;20041;-73
2023/08/05 10:02:25;;;;;;;2.55;1.42;;;26.00;92.50;;;;;;5054321;28;20494;-73
2023/08/05 10:04:56;;;;;;;3.03;1.70;;;26.10;93.60;;;;;;5036769;28;20088;-73
2023/08/05 10:07:23;;;;;;;2.03;1.90;;;26.00;93.30;;;;;;5054209;28;20063;-75
2023/08/05 10:09:50;;;;;;;5.40;1.58;;;25.60;93.50;;;;;;5054188;28;20053;-73
2023/08/05 10:12:22;;;;;;;2.10;1.90;;;24.90;93.40;;;;;;5054447;28;20098;-73
2023/08/05 10:14:49;;;;;;;4.57;1.77;;;24.60;93.20;;;;;;5036688;28;20060;-72
2023/08/05 10:17:17;;;;;;;1.70;1.60;;;24.00;93.40;;;;;;5054029;28;20055;-72
2023/08/05 10:19:49;;;;;;;3.60;1.90;;;23.50;93.40;;;;;;5036336;28;20537;-73
2023/08/05 10:22:24;;;;;;;2.00;1.50;;;23.20;94.40;;;;;;5053747;28;20045;-72
2023/08/05 10:25:00;;;;;;;2.83;1.65;;;23.20;94.50;;;;;;5053890;28;20048;-75
2023/08/05 10:27:44;;;;;;;2.92;1.70;;;23.10;94.10;;;;;;5054396;28;20087;-73
2023/08/05 10:30:12;;;;;;;1.98;1.80;;;23.10;93.90;;;;;;5053485;28;20053;-72
2023/08/05 10:33:04;;;;;;;2.60;1.83;;;23.60;94.10;;;;;;5053790;28;20091;-74
2023/08/05 10:35:40;;;;;;;2.10;1.90;;;23.90;94.30;;;;;;5050409;28;20056;-72
2023/08/05 10:38:16;;;;;;;3.55;2.45;;;24.40;94.30;;;;;;5036036;28;20487;-73
2023/08/05 10:40:52;;;;;;;2.78;2.05;;;24.50;94.30;;;;;;5053971;28;20098;-74
2023/08/05 10:43:33;;;;;;;2.15;1.95;;;24.10;94.40;;;;;;5035887;28;20450;-72
2023/08/05 10:46:00;;;;;;;2.22;2.03;;;24.00;94.60;;;;;;5053863;28;20045;-73
2023/08/05 10:48:47;;;;;;;2.00;1.80;;;24.90;94.90;;;;;;5035600;28;20045;-73
2023/08/05 10:51:17;;;;;;;3.65;1.85;;;25.10;93.90;;;;;;5053366;28;20478;-75
2023/08/05 10:53:58;;;;;;;2.72;2.10;;;24.50;94.30;;;;;;5053383;28;20167;-72
2023/08/05 10:56:31;;;;;;;2.28;2.08;;;24.10;94.60;;;;;;5053388;28;20048;-73
2023/08/05 10:59:01;;;;;;;3.40;2.17;;;24.10;94.50;;;;;;5053165;28;20041;-72
2023/08/05 11:01:53;;;;;;;3.47;1.88;;;24.10;95.10;;;;;;5053817;28;20087;-73
2023/08/05 11:04:29;;;;;;;3.45;2.38;;;23.90;95.10;;;;;;5053128;28;20116;-75
2023/08/05 11:06:56;;;;;;;4.47;2.50;;;23.80;94.70;;;;;;5053537;28;20041;-73
2023/08/05 11:09:26;;;;;;;3.35;2.28;;;23.70;95.00;;;;;;5034974;28;20084;-73
2023/08/05 11:11:52;;;;;;;3.58;2.08;;;23.70;95.40;;;;;;5052887;28;20049;-74
2023/08/05 11:14:19;;;;;;;3.17;1.90;;;23.60;95.10;;;;;;5053575;28;20045;-73
2023/08/05 11:16:48;;;;;;;7.45;2.03;;;23.20;94.40;;;;;;5035600;28;20109;-73
2023/08/05 11:19:17;;;;;;;2.83;2.00;;;22.90;94.60;;;;;;5053013;28;20504;-73
2023/08/05 11:21:46;;;;;;;3.97;1.98;;;22.70;94.60;;;;;;5035583;28;20045;-73
2023/08/05 11:24:18;;;;;;;2.58;1.80;;;22.70;95.20;;;;;;5053144;28;20071;-75
2023/08/05 11:26:44;;;;;;;2.92;2.35;;;22.80;95.00;;;;;;5052996;28;20050;-73
2023/08/05 11:29:10;;;;;;;1.90;1.70;;;22.80;95.10;;;;;;5052325;28;20573;-73
2023/08/05 11:31:36;;;;;;;2.35;1.90;;;22.90;95.00;;;;;;5034442;28;20056;-72
2023/08/05 11:34:02;;;;;;;4.28;2.40;;;23.00;94.90;;;;;;5034932;28;20056;-74
2023/08/05 11:36:29;;;;;;;1.88;1.75;;;23.20;95.00;;;;;;5052499;28;20049;-73
2023/08/05 11:38:59;;;;;;;3.53;1.77;;;23.40;94.80;;;;;;5052608;28;20091;-73
2023/08/05 11:41:27;;;;;;;2.38;1.80;;;23.50;94.70;;;;;;5052511;28;20067;-72
2023/08/05 11:43:54;;;;;;;3.42;1.88;;;23.40;94.60;;;;;;5053003;28;20122;-72
2023/08/05 11:46:27;;;;;;;3.15;2.63;;;23.30;94.60;;;;;;5035054;28;20041;-74
2023/08/05 11:49:07;;;;;;;2.55;1.77;;;23.20;94.80;;;;;;5034912;28;20049;-73
2023/08/05 11:51:52;;;;;;;3.75;2.15;;;23.10;94.50;;;;;;5052606;28;20077;-73
2023/08/05 11:54:30;;;;;;;2.42;2.22;;;23.00;94.70;;;;;;5052451;28;20098;-73
2023/08/05 11:56:57;;;;;;;2.53;2.03;;;23.00;95.60;;;;;;5052815;28;20410;-74
2023/08/05 11:59:47;;;;;;;2.42;2.22;;;22.90;95.50;;;;;;5052328;28;20095;-74
2023/08/05 12:02:15;;;;;;;3.85;2.75;;;22.80;95.20;;;;;;5052510;28;20107;-73
2023/08/05 12:04:42;;;;;;;2.25;2.05;;;22.60;95.80;;;;;;5052270;28;20098;-75
2023/08/05 12:07:13;;;;;;;2.60;2.20;;;22.50;96.10;;;;;;5052730;28;20048;-73
2023/08/05 12:09:39;;;;;;;2.65;2.40;;;22.70;96.00;;;;;;5052261;28;20132;-73
2023/08/05 12:12:05;;;;;;;2.80;2.50;;;22.70;96.10;;;;;;5052673;28;20479;-73
2023/08/05 12:14:31;;;;;;;2.80;2.55;;;22.70;96.00;;;;;;5051961;28;20553;-73
2023/08/05 12:16:59;;;;;;;4.90;3.08;;;22.60;96.00;;;;;;5004522;28;20045;-73
2023/08/05 12:19:26;;;;;;;3.92;2.63;;;22.70;96.40;;;;;;5056260;28;20083;-74
2023/08/05 12:21:52;;;;;;;3.03;2.70;;;22.60;96.50;;;;;;5056218;28;20084;-74
2023/08/05 12:24:18;;;;;;;4.40;3.53;;;22.60;96.80;;;;;;5056169;28;20056;-73
2023/08/05 12:26:44;;;;;;;3.55;3.25;;;22.60;96.70;;;;;;5056389;28;20056;-73
2023/08/05 12:29:10;;;;;;;6.10;3.30;;;22.60;96.70;;;;;;5038605;28;20037;-73
2023/08/05 12:31:36;;;;;;;4.55;3.42;;;22.60;97.00;;;;;;5055546;28;20075;-72
2023/08/05 12:34:01;;;;;;;3.85;3.55;;;22.40;97.20;;;;;;5056385;28;20055;-73
2023/08/05 12:36:27;;;;;;;5.82;3.53;;;22.30;97.40;;;;;;5056132;28;20094;-72
2023/08/05 12:38:53;;;;;;;5.72;3.60;;;22.20;97.70;;;;;;5056194;28;20488;-73
2023/08/05 12:41:19;;;;;;;20.55;4.43;;;22.10;97.60;;;;;;5055799;28;20095;-72
2023/08/05 12:43:44;;;;;;;5.95;4.30;;;22.00;97.80;;;;;;5055748;28;20553;-73
2023/08/05 12:46:10;;;;;;;4.75;4.25;;;22.00;98.10;;;;;;5038278;28;20088;-73